createdAt,value
2023-03-15T00:00:35.323Z,2.42
2023-03-15T00:03:01.723Z,3.25
2023-03-15T00:05:28.120Z,4.40
2023-03-15T00:07:54.557Z,3.45
2023-03-15T00:10:21.014Z,4.88
2023-03-15T00:12:47.422Z,2.25
2023-03-15T00:15:13.866Z,3.17
2023-03-15T00:17:40.307Z,4.18
2023-03-15T00:20:06.766Z,4.78
2023-03-15T00:22:33.258Z,4.03
2023-03-15T00:24:59.726Z,3.13
2023-03-15T00:27:26.171Z,3.95
2023-03-15T00:29:52.601Z,3.45
2023-03-15T00:32:18.973Z,2.42
2023-03-15T00:34:45.389Z,3.35
2023-03-15T00:37:11.987Z,2.67
2023-03-15T00:39:38.378Z,4.00
2023-03-15T00:42:04.755Z,3.47
2023-03-15T00:44:31.130Z,2.25
2023-03-15T00:46:57.552Z,2.83
2023-03-15T00:49:23.998Z,2.20
2023-03-15T00:51:50.466Z,2.50
2023-03-15T00:54:16.928Z,2.50
2023-03-15T00:56:43.302Z,1.90
2023-03-15T00:59:09.739Z,3.30
2023-03-15T01:01:36.270Z,3.17
2023-03-15T01:04:02.685Z,2.83
2023-03-15T01:06:29.073Z,2.22
2023-03-15T01:08:55.452Z,2.22
2023-03-15T01:11:21.813Z,3.38
2023-03-15T01:13:48.270Z,2.50
2023-03-15T01:16:14.790Z,2.63
2023-03-15T01:18:41.263Z,2.92
2023-03-15T01:21:07.650Z,3.63
2023-03-15T01:23:34.144Z,3.33
2023-03-15T01:26:00.541Z,2.50
2023-03-15T01:28:26.925Z,3.80
2023-03-15T01:30:53.345Z,3.28
2023-03-15T01:33:19.755Z,2.50
2023-03-15T01:35:46.214Z,2.13
2023-03-15T01:38:12.686Z,2.17
2023-03-15T01:40:39.111Z,2.55
2023-03-15T01:43:05.521Z,2.95
2023-03-15T01:45:31.924Z,2.78
2023-03-15T01:47:58.314Z,3.08
2023-03-15T01:50:24.709Z,2.65
2023-03-15T01:52:51.090Z,2.88
2023-03-15T01:55:17.458Z,2.42
2023-03-15T01:57:43.892Z,4.20
2023-03-15T02:00:10.333Z,2.50
2023-03-15T02:02:36.816Z,4.50
2023-03-15T02:05:03.313Z,3.33
2023-03-15T02:07:29.706Z,3.28
2023-03-15T02:09:56.072Z,3.92
2023-03-15T02:12:22.431Z,4.55
2023-03-15T02:14:48.800Z,4.60
2023-03-15T02:17:15.233Z,6.00
2023-03-15T02:19:41.774Z,4.68
2023-03-15T02:22:08.219Z,4.15
2023-03-15T02:24:34.606Z,4.00
2023-03-15T02:27:01.006Z,3.75
2023-03-15T02:29:27.405Z,4.60
2023-03-15T02:31:53.898Z,3.78
2023-03-15T02:34:20.363Z,4.32
2023-03-15T02:36:46.814Z,4.10
2023-03-15T02:39:13.219Z,3.70
2023-03-15T02:41:39.708Z,4.30
2023-03-15T02:44:06.307Z,3.85
2023-03-15T02:46:32.758Z,3.58
2023-03-15T02:48:59.182Z,4.18
2023-03-15T02:51:25.603Z,3.97
2023-03-15T02:53:52.036Z,4.43
2023-03-15T02:56:18.692Z,3.97
2023-03-15T02:58:45.134Z,3.85
2023-03-15T03:01:11.742Z,3.92
2023-03-15T03:03:38.175Z,4.03
2023-03-15T03:06:04.589Z,4.25
2023-03-15T03:08:31.041Z,2.45
2023-03-15T03:10:57.464Z,3.15
2023-03-15T03:13:23.890Z,3.95
2023-03-15T03:15:50.316Z,3.25
2023-03-15T03:18:16.711Z,3.63
2023-03-15T03:20:43.117Z,3.97
2023-03-15T03:23:09.498Z,4.28
2023-03-15T03:25:35.890Z,4.38
2023-03-15T03:28:02.261Z,4.35
2023-03-15T03:30:28.628Z,4.45
2023-03-15T03:32:55.144Z,5.63
2023-03-15T03:35:21.584Z,3.55
2023-03-15T03:37:47.973Z,5.28
2023-03-15T03:40:14.380Z,5.07
2023-03-15T03:42:40.798Z,4.35
2023-03-15T03:45:07.347Z,4.75
2023-03-15T03:47:33.820Z,7.50
2023-03-15T03:50:00.283Z,7.97
2023-03-15T03:52:26.748Z,6.03
2023-03-15T03:54:53.208Z,6.40
2023-03-15T03:57:19.626Z,7.40
2023-03-15T03:59:46.005Z,6.88
2023-03-15T04:02:12.540Z,6.80
2023-03-15T04:04:39.050Z,5.90
2023-03-15T04:07:05.458Z,6.53
2023-03-15T04:09:31.891Z,5.90
2023-03-15T04:11:58.274Z,5.78
2023-03-15T04:14:24.697Z,5.18
2023-03-15T04:16:51.140Z,5.80
2023-03-15T04:19:17.595Z,5.15
2023-03-15T04:21:44.055Z,5.97
2023-03-15T04:24:10.467Z,5.13
2023-03-15T04:26:36.896Z,5.28
2023-03-15T04:29:03.337Z,4.13
2023-03-15T04:31:29.786Z,4.32
2023-03-15T04:33:56.247Z,4.53
2023-03-15T04:36:22.653Z,5.82
2023-03-15T04:38:49.035Z,4.30
2023-03-15T04:41:15.427Z,7.38
2023-03-15T04:43:41.792Z,6.35
2023-03-15T04:46:08.244Z,4.47
2023-03-15T04:48:34.672Z,6.50
2023-03-15T04:51:01.086Z,5.78
2023-03-15T04:53:27.533Z,5.88
2023-03-15T04:55:53.911Z,5.53
2023-03-15T04:58:20.292Z,6.93
2023-03-15T05:00:46.718Z,6.72
2023-03-15T05:03:13.142Z,5.18
2023-03-15T05:05:39.597Z,4.78
2023-03-15T05:08:06.043Z,5.63
2023-03-15T05:10:32.501Z,5.15
2023-03-15T05:12:58.956Z,4.50
2023-03-15T05:15:25.480Z,4.85
2023-03-15T05:17:51.954Z,4.50
2023-03-15T05:20:18.357Z,4.65
2023-03-15T05:22:44.801Z,5.15
2023-03-15T05:25:11.445Z,4.35
2023-03-15T05:27:38.033Z,5.38
2023-03-15T05:30:04.495Z,6.43
2023-03-15T05:32:30.993Z,6.32
2023-03-15T05:34:57.407Z,6.40
2023-03-15T05:37:23.787Z,7.40
2023-03-15T05:39:50.212Z,6.07
2023-03-15T05:42:16.649Z,6.22
2023-03-15T05:44:43.099Z,6.88
2023-03-15T05:47:09.527Z,7.85
2023-03-15T05:49:35.967Z,5.47
2023-03-15T05:52:02.349Z,4.93
2023-03-15T05:54:28.742Z,7.47
2023-03-15T05:56:55.186Z,9.10
2023-03-15T05:59:21.633Z,8.02
2023-03-15T06:01:48.023Z,9.75
2023-03-15T06:04:14.425Z,7.05
2023-03-15T06:06:41.050Z,8.85
2023-03-15T06:09:07.440Z,7.70
2023-03-15T06:11:33.838Z,6.45
2023-03-15T06:14:00.290Z,8.13
2023-03-15T06:16:26.800Z,7.60
2023-03-15T06:18:53.227Z,8.30
2023-03-15T06:21:19.601Z,6.25
2023-03-15T06:23:46.065Z,6.82
2023-03-15T06:26:12.503Z,6.38
2023-03-15T06:28:38.903Z,7.18
2023-03-15T06:31:05.411Z,6.07
2023-03-15T06:33:31.888Z,6.28
2023-03-15T06:35:58.331Z,5.78
2023-03-15T06:38:24.837Z,5.72
2023-03-15T06:40:51.318Z,5.75
2023-03-15T06:43:17.710Z,5.53
2023-03-15T06:45:44.191Z,4.53
2023-03-15T06:48:10.593Z,5.43
2023-03-15T06:50:46.363Z,4.63
2023-03-15T06:53:13.103Z,3.95
2023-03-15T06:55:39.522Z,4.22
2023-03-15T06:58:05.902Z,4.32
2023-03-15T07:00:32.370Z,5.38
2023-03-15T07:02:58.859Z,7.15
2023-03-15T07:05:25.304Z,4.80
2023-03-15T07:07:51.719Z,4.72
2023-03-15T07:10:18.128Z,4.75
2023-03-15T07:12:44.588Z,4.97
2023-03-15T07:15:10.975Z,3.85
2023-03-15T07:17:37.373Z,5.50
2023-03-15T07:20:03.809Z,5.03
2023-03-15T07:22:30.201Z,4.25
2023-03-15T07:24:56.598Z,4.65
2023-03-15T07:27:23.070Z,4.07
2023-03-15T07:29:49.536Z,4.75
2023-03-15T07:32:15.950Z,3.70
2023-03-15T07:34:42.436Z,4.22
2023-03-15T07:37:08.842Z,3.13
2023-03-15T07:39:35.283Z,4.28
2023-03-15T07:42:01.726Z,4.05
2023-03-15T07:44:28.169Z,2.22
2023-03-15T07:46:54.662Z,3.20
2023-03-15T07:49:21.052Z,3.72
2023-03-15T07:51:47.438Z,5.28
2023-03-15T07:54:13.834Z,4.90
2023-03-15T07:56:40.346Z,6.68
2023-03-15T07:59:06.887Z,4.93
2023-03-15T08:01:33.318Z,2.55
2023-03-15T08:03:59.830Z,2.45
2023-03-15T08:06:26.209Z,3.38
2023-03-15T08:08:52.625Z,2.83
2023-03-15T08:11:19.026Z,5.05
2023-03-15T08:13:45.451Z,2.92
2023-03-15T08:16:11.860Z,4.07
2023-03-15T08:18:38.332Z,3.00
2023-03-15T08:21:04.775Z,2.60
2023-03-15T08:23:31.177Z,5.10
2023-03-15T08:25:57.636Z,4.30
2023-03-15T08:28:24.080Z,3.42
2023-03-15T08:30:50.513Z,4.28
2023-03-15T08:33:16.888Z,4.15
2023-03-15T08:35:43.341Z,6.45
2023-03-15T08:38:09.803Z,5.35
2023-03-15T08:40:37.311Z,2.85
2023-03-15T08:43:04.624Z,5.05
2023-03-15T08:45:32.995Z,2.97
2023-03-15T08:47:59.564Z,3.85
2023-03-15T08:50:26.114Z,4.18
2023-03-15T08:52:52.573Z,4.28
2023-03-15T08:55:18.970Z,3.45
2023-03-15T08:57:45.394Z,3.80
2023-03-15T09:00:11.816Z,3.22
2023-03-15T09:02:38.268Z,3.28
2023-03-15T09:05:04.684Z,3.13
2023-03-15T09:07:31.096Z,3.72
2023-03-15T09:09:57.565Z,2.45
2023-03-15T09:12:23.972Z,2.78
2023-03-15T09:14:50.386Z,2.47
2023-03-15T09:17:16.818Z,3.28
2023-03-15T09:19:43.246Z,3.65
2023-03-15T09:22:16.421Z,1.95
2023-03-15T09:24:43.485Z,4.40
2023-03-15T09:27:09.890Z,4.18
2023-03-15T09:29:36.272Z,1.75
2023-03-15T09:32:02.741Z,2.40
2023-03-15T09:34:33.293Z,3.92
2023-03-15T09:37:06.221Z,3.05
2023-03-15T09:39:32.700Z,3.22
2023-03-15T09:41:59.130Z,3.42
2023-03-15T09:44:25.529Z,2.28
2023-03-15T09:46:52.030Z,3.85
2023-03-15T09:49:18.483Z,9.68
2023-03-15T09:51:44.923Z,2.47
2023-03-15T09:54:11.569Z,3.58
2023-03-15T09:56:37.959Z,3.13
2023-03-15T09:59:04.349Z,5.78
2023-03-15T10:01:30.784Z,2.30
2023-03-15T10:03:57.277Z,3.92
2023-03-15T10:06:23.693Z,4.72
2023-03-15T10:08:50.089Z,2.63
2023-03-15T10:11:16.519Z,2.42
2023-03-15T10:13:42.979Z,3.55
2023-03-15T10:16:09.449Z,2.88
2023-03-15T10:18:35.956Z,2.78
2023-03-15T10:21:02.414Z,3.92
2023-03-15T10:23:28.882Z,3.90
2023-03-15T10:25:55.321Z,2.92
2023-03-15T10:28:21.753Z,3.10
2023-03-15T10:30:48.249Z,3.33
2023-03-15T10:33:14.648Z,2.25
2023-03-15T10:35:41.138Z,2.35
2023-03-15T10:38:07.575Z,5.10
2023-03-15T10:40:34.015Z,5.20
2023-03-15T10:43:00.451Z,6.70
2023-03-15T10:45:26.839Z,4.93
2023-03-15T10:48:00.440Z,4.45
2023-03-15T10:50:27.474Z,3.38
2023-03-15T10:52:53.869Z,2.60
2023-03-15T10:55:20.269Z,3.55
2023-03-15T10:57:46.708Z,4.03
2023-03-15T11:00:13.127Z,3.70
2023-03-15T11:02:39.559Z,2.80
2023-03-15T11:05:06.001Z,2.88
2023-03-15T11:07:32.380Z,3.75
2023-03-15T11:09:58.812Z,1.35
2023-03-15T11:12:25.234Z,3.60
2023-03-15T11:14:51.633Z,2.33
2023-03-15T11:17:18.050Z,1.88
2023-03-15T11:19:44.482Z,2.80
2023-03-15T11:22:11.140Z,1.83
2023-03-15T11:24:37.629Z,2.67
2023-03-15T11:27:04.108Z,3.60
2023-03-15T11:29:30.497Z,3.47
2023-03-15T11:31:56.925Z,2.55
2023-03-15T11:34:23.398Z,3.72
2023-03-15T11:37:01.864Z,1.95
2023-03-15T11:39:33.813Z,1.90
2023-03-15T11:42:00.282Z,2.35
2023-03-15T11:44:26.776Z,2.00
2023-03-15T11:46:53.225Z,2.80
2023-03-15T11:49:19.682Z,1.95
2023-03-15T11:51:46.078Z,1.73
2023-03-15T11:54:12.470Z,2.45
2023-03-15T11:56:38.837Z,1.98
2023-03-15T11:59:05.288Z,2.15
2023-03-15T12:01:31.715Z,1.45
2023-03-15T12:03:58.156Z,3.33
2023-03-15T12:06:24.634Z,2.42
2023-03-15T12:08:51.071Z,3.22
2023-03-15T12:11:17.496Z,3.25
2023-03-15T12:13:43.907Z,1.75
2023-03-15T12:16:10.356Z,1.75
2023-03-15T12:18:36.793Z,1.92
2023-03-15T12:21:03.209Z,3.22
2023-03-15T12:23:29.652Z,1.20
2023-03-15T12:25:56.070Z,2.38
2023-03-15T12:28:22.529Z,2.58
2023-03-15T12:30:48.984Z,1.23
2023-03-15T12:33:15.387Z,1.70
2023-03-15T12:35:42.836Z,1.00
2023-03-15T12:38:09.247Z,2.30
2023-03-15T12:40:35.731Z,2.13
2023-03-15T12:43:02.106Z,3.13
2023-03-15T12:45:28.550Z,3.13
2023-03-15T12:47:55.057Z,3.60
2023-03-15T12:50:21.492Z,4.70
2023-03-15T12:52:47.925Z,1.10
2023-03-15T12:55:14.293Z,1.30
2023-03-15T12:57:40.752Z,2.45
2023-03-15T13:00:07.222Z,2.33
2023-03-15T13:02:42.709Z,2.88
2023-03-15T13:05:10.415Z,1.95
2023-03-15T13:07:48.871Z,1.63
2023-03-15T13:10:16.957Z,2.00
2023-03-15T13:12:43.438Z,1.20
2023-03-15T13:15:09.896Z,2.42
2023-03-15T13:17:36.362Z,2.58
2023-03-15T13:20:02.830Z,3.00
2023-03-15T13:22:29.309Z,1.40
2023-03-15T13:24:55.682Z,3.08
2023-03-15T13:27:22.137Z,2.60
2023-03-15T13:29:48.529Z,5.55
2023-03-15T13:32:14.966Z,2.40
2023-03-15T13:34:41.411Z,1.73
2023-03-15T13:37:07.843Z,2.13
2023-03-15T13:39:34.292Z,2.42
2023-03-15T13:42:00.741Z,1.85
2023-03-15T13:44:27.130Z,2.00
2023-03-15T13:46:53.558Z,2.08
2023-03-15T13:49:20.022Z,1.63
2023-03-15T13:51:46.482Z,1.73
2023-03-15T13:54:12.855Z,2.78
2023-03-15T13:56:49.184Z,1.88
2023-03-15T13:59:15.892Z,1.38
2023-03-15T14:01:42.440Z,2.28
2023-03-15T14:04:09.025Z,1.10
2023-03-15T14:06:35.394Z,2.90
2023-03-15T14:09:01.756Z,0.70
2023-03-15T14:11:28.124Z,2.97
2023-03-15T14:13:54.542Z,1.90
2023-03-15T14:16:21.035Z,0.93
2023-03-15T14:18:47.473Z,1.75
2023-03-15T14:21:13.848Z,1.55
2023-03-15T14:23:40.654Z,0.73
2023-03-15T14:26:07.050Z,0.75
2023-03-15T14:28:33.639Z,0.98
2023-03-15T14:31:00.065Z,0.60
2023-03-15T14:33:26.505Z,1.25
2023-03-15T14:35:52.949Z,1.55
2023-03-15T14:38:19.369Z,1.20
2023-03-15T14:40:45.765Z,1.55
2023-03-15T14:43:12.235Z,2.50
2023-03-15T14:45:38.753Z,1.63
2023-03-15T14:48:05.255Z,1.10
2023-03-15T14:50:31.724Z,1.73
2023-03-15T14:52:58.180Z,1.55
2023-03-15T14:55:24.569Z,1.35
2023-03-15T14:57:50.967Z,1.00
2023-03-15T15:00:17.370Z,1.30
2023-03-15T15:02:43.836Z,2.15
2023-03-15T15:05:10.288Z,1.60
2023-03-15T15:07:36.788Z,0.90
2023-03-15T15:10:03.230Z,1.50
2023-03-15T15:12:29.630Z,1.88
2023-03-15T15:14:56.064Z,1.65
2023-03-15T15:17:22.473Z,2.42
2023-03-15T15:19:48.852Z,1.42
2023-03-15T15:22:15.226Z,2.50
2023-03-15T15:24:41.761Z,1.83
2023-03-15T15:27:08.127Z,2.05
2023-03-15T15:29:34.569Z,2.08
2023-03-15T15:32:01.013Z,1.27
2023-03-15T15:34:27.450Z,1.83
2023-03-15T15:36:53.921Z,0.82
2023-03-15T15:39:20.316Z,2.00
2023-03-15T15:41:46.770Z,1.00
2023-03-15T15:44:13.149Z,1.52
2023-03-15T15:46:39.540Z,1.48
2023-03-15T15:49:05.997Z,1.17
2023-03-15T15:51:32.463Z,1.58
2023-03-15T15:53:58.930Z,2.72
2023-03-15T15:56:25.352Z,2.00
2023-03-15T15:58:51.875Z,1.35
2023-03-15T16:01:18.325Z,1.58
2023-03-15T16:03:44.727Z,2.10
2023-03-15T16:06:11.753Z,3.58
2023-03-15T16:08:38.188Z,2.10
2023-03-15T16:11:04.606Z,1.90
2023-03-15T16:13:31.036Z,2.60
2023-03-15T16:15:57.496Z,3.35
2023-03-15T16:18:23.898Z,2.65
2023-03-15T16:20:50.323Z,1.48
2023-03-15T16:23:16.770Z,2.20
2023-03-15T16:25:43.236Z,2.25
2023-03-15T16:28:09.607Z,2.03
2023-03-15T16:30:36.037Z,3.42
2023-03-15T16:33:02.495Z,1.63
2023-03-15T16:35:28.926Z,2.42
2023-03-15T16:37:55.366Z,2.53
2023-03-15T16:40:21.766Z,1.45
2023-03-15T16:42:48.208Z,2.13
2023-03-15T16:45:14.641Z,0.93
2023-03-15T16:47:41.028Z,2.00
2023-03-15T16:50:07.704Z,1.70
2023-03-15T16:52:34.146Z,0.70
2023-03-15T16:55:00.555Z,3.22
2023-03-15T16:57:27.021Z,1.48
2023-03-15T16:59:53.481Z,2.45
2023-03-15T17:02:19.918Z,0.65
2023-03-15T17:04:46.793Z,1.77
2023-03-15T17:07:13.318Z,1.25
2023-03-15T17:09:39.771Z,0.40
2023-03-15T17:12:06.567Z,0.80
2023-03-15T17:14:33.084Z,1.08
2023-03-15T17:17:01.834Z,1.50
2023-03-15T17:19:28.249Z,1.08
2023-03-15T17:21:54.622Z,1.10
2023-03-15T17:24:21.082Z,1.67
2023-03-15T17:26:47.538Z,0.90
2023-03-15T17:29:14.119Z,1.95
2023-03-15T17:31:40.796Z,1.25
2023-03-15T17:34:07.305Z,1.05
2023-03-15T17:36:33.769Z,2.20
2023-03-15T17:39:00.268Z,1.42
2023-03-15T17:41:26.720Z,0.80
2023-03-15T17:43:53.144Z,2.08
2023-03-15T17:46:19.562Z,1.70
2023-03-15T17:48:45.997Z,0.98
2023-03-15T17:51:12.546Z,1.00
2023-03-15T17:53:39.280Z,0.88
2023-03-15T17:56:05.821Z,2.55
2023-03-15T17:58:32.387Z,0.30
2023-03-15T18:00:59.173Z,2.25
2023-03-15T18:03:25.708Z,1.35
2023-03-15T18:05:52.146Z,2.00
2023-03-15T18:08:18.561Z,1.90
2023-03-15T18:10:45.178Z,2.38
2023-03-15T18:13:11.995Z,0.50
2023-03-15T18:15:38.651Z,1.70
2023-03-15T18:18:06.408Z,1.05
2023-03-15T18:20:33.316Z,0.70
2023-03-15T18:22:59.732Z,1.17
2023-03-15T18:25:26.421Z,1.48
2023-03-15T18:27:52.999Z,2.17
2023-03-15T18:30:19.384Z,1.48
2023-03-15T18:32:46.289Z,1.92
2023-03-15T18:35:12.860Z,1.05
2023-03-15T18:37:39.263Z,0.70
2023-03-15T18:40:05.638Z,0.95
2023-03-15T18:42:32.100Z,2.08
2023-03-15T18:44:58.706Z,2.03
2023-03-15T18:47:25.091Z,1.35
2023-03-15T18:49:58.001Z,1.52
2023-03-15T18:52:27.537Z,1.98
2023-03-15T18:54:53.972Z,1.90
2023-03-15T18:57:20.598Z,1.75
2023-03-15T18:59:47.045Z,1.50
2023-03-15T19:02:13.862Z,2.58
2023-03-15T19:04:40.245Z,1.85
2023-03-15T19:07:06.847Z,2.67
2023-03-15T19:09:33.355Z,1.88
2023-03-15T19:12:00.147Z,1.17
2023-03-15T19:14:26.733Z,1.00
2023-03-15T19:16:53.183Z,2.20
2023-03-15T19:19:19.592Z,1.65
2023-03-15T19:21:46.057Z,3.83
2023-03-15T19:24:12.494Z,1.65
2023-03-15T19:26:38.974Z,3.22
2023-03-15T19:29:05.386Z,1.52
2023-03-15T19:31:31.838Z,2.17
2023-03-15T19:33:58.297Z,2.05
2023-03-15T19:36:24.717Z,3.25
2023-03-15T19:38:51.159Z,4.28
2023-03-15T19:41:17.841Z,1.88
2023-03-15T19:43:44.295Z,1.77
2023-03-15T19:46:11.144Z,2.65
2023-03-15T19:48:37.734Z,1.80
2023-03-15T19:51:04.194Z,2.90
2023-03-15T19:53:30.634Z,1.60
2023-03-15T19:55:57.057Z,2.72
2023-03-15T19:58:23.513Z,1.95
2023-03-15T20:00:49.921Z,3.72
2023-03-15T20:03:16.390Z,1.77
2023-03-15T20:05:42.851Z,2.83
2023-03-15T20:08:09.239Z,1.80
2023-03-15T20:10:35.628Z,1.58
2023-03-15T20:13:02.057Z,4.25
2023-03-15T20:15:29.545Z,2.17
2023-03-15T20:17:56.063Z,1.85
2023-03-15T20:20:23.015Z,1.92
2023-03-15T20:22:49.691Z,2.75
2023-03-15T20:25:16.154Z,3.35
2023-03-15T20:27:42.603Z,4.25
2023-03-15T20:30:09.001Z,2.17
2023-03-15T20:32:35.504Z,2.55
2023-03-15T20:35:02.009Z,2.88
2023-03-15T20:37:28.407Z,3.65
2023-03-15T20:39:54.833Z,2.85
2023-03-15T20:42:21.250Z,2.55
2023-03-15T20:44:47.640Z,4.70
2023-03-15T20:47:14.069Z,3.20
2023-03-15T20:49:40.828Z,3.28
2023-03-15T20:52:07.611Z,1.92
2023-03-15T20:54:34.085Z,2.65
2023-03-15T20:57:00.556Z,4.68
2023-03-15T20:59:27.291Z,3.22
2023-03-15T21:01:53.948Z,2.78
2023-03-15T21:04:20.410Z,2.17
2023-03-15T21:06:50.046Z,3.28
2023-03-15T21:09:16.527Z,2.47
2023-03-15T21:11:43.037Z,1.77
2023-03-15T21:14:09.670Z,3.38
2023-03-15T21:16:36.504Z,3.20
2023-03-15T21:19:03.078Z,2.35
2023-03-15T21:21:29.682Z,3.45
2023-03-15T21:23:56.321Z,2.60
2023-03-15T21:26:22.791Z,3.30
2023-03-15T21:28:49.205Z,2.25
2023-03-15T21:31:15.842Z,3.05
2023-03-15T21:33:42.548Z,3.53
2023-03-15T21:36:09.211Z,3.45
2023-03-15T21:38:35.730Z,2.95
2023-03-15T21:41:02.251Z,3.92
2023-03-15T21:43:28.909Z,3.22
2023-03-15T21:45:55.638Z,3.58
2023-03-15T21:48:22.386Z,3.13
2023-03-15T21:50:48.931Z,2.60
2023-03-15T21:53:15.377Z,2.45
2023-03-15T21:55:41.978Z,3.70
2023-03-15T21:58:08.521Z,3.58
2023-03-15T22:00:34.893Z,3.28
2023-03-15T22:03:01.317Z,3.20
2023-03-15T22:05:27.859Z,4.13
2023-03-15T22:07:54.315Z,4.65
2023-03-15T22:10:20.708Z,3.10
2023-03-15T22:12:47.164Z,3.08
2023-03-15T22:15:13.566Z,4.53
2023-03-15T22:17:39.972Z,3.58
2023-03-15T22:20:06.725Z,3.85
2023-03-15T22:22:33.105Z,3.63
2023-03-15T22:24:59.540Z,3.40
2023-03-15T22:27:26.061Z,3.33
2023-03-15T22:29:52.472Z,3.05
2023-03-15T22:32:18.927Z,3.42
2023-03-15T22:34:45.375Z,3.45
2023-03-15T22:37:11.924Z,4.18
2023-03-15T22:39:38.377Z,2.70
2023-03-15T22:42:04.837Z,3.25
2023-03-15T22:44:31.288Z,4.53
2023-03-15T22:46:57.754Z,2.65
2023-03-15T22:49:24.182Z,3.58
2023-03-15T22:51:50.586Z,2.20
2023-03-15T22:54:16.973Z,4.10
2023-03-15T22:56:43.353Z,3.90
2023-03-15T22:59:09.727Z,2.80
2023-03-15T23:01:36.207Z,3.15
2023-03-15T23:04:02.701Z,4.22
2023-03-15T23:06:29.149Z,2.72
2023-03-15T23:08:55.537Z,4.95
2023-03-15T23:11:21.999Z,3.13
2023-03-15T23:13:48.466Z,4.95
2023-03-15T23:16:14.917Z,3.05
2023-03-15T23:18:41.306Z,4.20
2023-03-15T23:21:07.771Z,3.22
2023-03-15T23:23:34.207Z,2.78
2023-03-15T23:26:00.664Z,4.03
2023-03-15T23:28:27.145Z,4.60
2023-03-15T23:30:53.625Z,2.97
2023-03-15T23:33:20.121Z,3.95
2023-03-15T23:35:46.613Z,3.50
2023-03-15T23:38:13.041Z,3.60
2023-03-15T23:40:39.492Z,6.57
2023-03-15T23:43:05.905Z,4.47
2023-03-15T23:45:32.375Z,4.50
2023-03-15T23:47:58.808Z,4.68
2023-03-15T23:50:25.711Z,4.13
2023-03-15T23:52:52.647Z,3.35
2023-03-15T23:55:19.032Z,4.05
2023-03-15T23:57:45.460Z,4.50
